createdAt,value
2022-07-25T14:55:47.187Z,1002.15
2022-07-25T14:56:47.104Z,1002.13
2022-07-25T14:57:47.111Z,1002.09
2022-07-25T14:58:47.090Z,1002.09
2022-07-25T14:59:47.057Z,1002.08
2022-07-25T15:00:47.156Z,1002.10
2022-07-25T15:01:47.055Z,1001.99
2022-07-25T15:02:47.094Z,1002.00
2022-07-25T15:03:47.058Z,1002.06
2022-07-25T15:04:47.137Z,1001.93
2022-07-25T15:05:47.028Z,1001.90
2022-07-25T15:06:46.999Z,1001.81
2022-07-25T15:07:47.010Z,1001.84
2022-07-25T15:08:47.003Z,1001.84
2022-07-25T15:09:55.863Z,1001.80
2022-07-25T15:10:54.594Z,1001.84
2022-07-25T15:11:54.730Z,1001.86
2022-07-25T15:13:20.570Z,1001.80
2022-07-25T15:13:47.937Z,1001.80
2022-07-25T15:14:46.959Z,1001.75
2022-07-25T15:15:46.945Z,1001.77
2022-07-25T15:16:46.961Z,1001.67
2022-07-25T15:17:46.985Z,1001.76
2022-07-25T15:19:14.658Z,1001.72
2022-07-25T15:19:47.875Z,1001.67
2022-07-25T15:20:46.854Z,1001.68
2022-07-25T15:21:46.844Z,1001.56
2022-07-25T15:22:46.829Z,1001.59
2022-07-25T15:23:46.820Z,1001.55
2022-07-25T15:25:17.882Z,1001.54
2022-07-25T15:26:04.076Z,1001.57
2022-07-25T15:26:47.784Z,1001.48
2022-07-25T15:27:46.782Z,1001.51
2022-07-25T15:28:46.783Z,1001.52
2022-07-25T15:29:46.759Z,1001.50
2022-07-25T15:30:46.763Z,1001.46
2022-07-25T15:31:46.817Z,1001.43
2022-07-25T15:32:46.734Z,1001.46
2022-07-25T15:33:46.721Z,1001.45
2022-07-25T15:34:46.717Z,1001.36
2022-07-25T15:35:46.697Z,1001.37
2022-07-25T15:36:46.687Z,1001.38
2022-07-25T15:37:46.696Z,1001.35
2022-07-25T15:38:46.673Z,1001.29
2022-07-25T15:39:46.664Z,1001.30
2022-07-25T15:40:46.663Z,1001.27
2022-07-25T15:41:46.644Z,1001.22
2022-07-25T15:42:46.634Z,1001.23
2022-07-25T15:43:46.622Z,1001.14
2022-07-25T15:44:46.608Z,1001.14
2022-07-25T15:45:46.598Z,1001.18
2022-07-25T15:46:46.708Z,1001.19
2022-07-25T15:47:50.849Z,1001.12
2022-07-25T15:48:46.627Z,1001.12
2022-07-25T15:49:46.559Z,1001.11
2022-07-25T15:50:46.550Z,1001.08
2022-07-25T15:51:46.550Z,1001.08
2022-07-25T15:52:46.567Z,1001.02
2022-07-25T15:53:46.518Z,1001.02
2022-07-25T15:54:46.505Z,1000.96
2022-07-25T15:55:46.497Z,1000.89
2022-07-25T15:56:46.493Z,1000.93
2022-07-25T15:57:46.490Z,1000.93
2022-07-25T15:58:46.511Z,1000.85
2022-07-25T15:59:46.463Z,1000.86
2022-07-25T16:00:46.563Z,1000.84
2022-07-25T16:01:46.441Z,1000.82
2022-07-25T16:02:46.431Z,1000.84
2022-07-25T16:03:46.478Z,1000.82
2022-07-25T16:04:46.438Z,1000.83
2022-07-25T16:05:46.406Z,1000.78
2022-07-25T16:06:46.396Z,1000.71
2022-07-25T16:07:46.380Z,1000.76
2022-07-25T16:08:46.373Z,1000.78
2022-07-25T16:09:46.386Z,1000.74
2022-07-25T16:10:46.351Z,1000.77
2022-07-25T16:11:46.333Z,1000.74
2022-07-25T16:12:46.329Z,1000.76
2022-07-25T16:13:46.317Z,1000.76
2022-07-25T16:14:46.313Z,1000.77
2022-07-25T16:15:46.410Z,1000.87
2022-07-25T16:16:46.360Z,1000.88
2022-07-25T16:17:46.280Z,1000.91
2022-07-25T16:18:46.265Z,1000.90
2022-07-25T16:19:46.272Z,1000.86
2022-07-25T16:20:46.261Z,1000.88
2022-07-25T16:21:46.242Z,1001.12
2022-07-25T16:22:46.236Z,1001.40
2022-07-25T16:23:46.216Z,1001.49
2022-07-25T16:24:46.204Z,1001.88
2022-07-25T16:25:46.210Z,1001.52
2022-07-25T16:26:46.181Z,1001.70
2022-07-25T16:27:46.170Z,1001.71
2022-07-25T16:28:46.169Z,1001.76
2022-07-25T16:29:46.193Z,1001.81
2022-07-25T16:30:46.147Z,1001.79
2022-07-25T16:31:46.485Z,1001.80
2022-07-25T16:32:46.127Z,1001.89
2022-07-25T16:33:47.288Z,1001.75
2022-07-25T16:34:46.503Z,1001.84
2022-07-25T16:35:46.303Z,1001.70
2022-07-25T16:36:47.780Z,1001.88
2022-07-25T16:37:46.085Z,1001.68
2022-07-25T16:38:46.064Z,1001.67
2022-07-25T16:39:46.875Z,1001.61
2022-07-25T16:40:47.283Z,1001.65
2022-07-25T16:41:48.237Z,1001.55
2022-07-25T16:42:46.172Z,1001.61
2022-07-25T16:43:46.365Z,1001.59
2022-07-25T16:44:46.923Z,1001.58
2022-07-25T16:45:46.013Z,1001.56
2022-07-25T16:46:46.055Z,1001.51
2022-07-25T16:47:46.910Z,1001.45
2022-07-25T16:48:48.195Z,1001.40
2022-07-25T16:49:46.058Z,1001.40
2022-07-25T16:50:49.649Z,1001.38
2022-07-25T16:51:54.525Z,1001.40
2022-07-25T16:52:49.428Z,1001.37
2022-07-25T16:53:50.329Z,1001.26
2022-07-25T16:54:48.620Z,1001.25
2022-07-25T16:56:50.265Z,1001.31
2022-07-25T16:57:47.115Z,1001.31
2022-07-25T16:58:48.751Z,1001.37
2022-07-25T16:59:46.941Z,1001.46
2022-07-25T17:00:45.956Z,1001.44
2022-07-25T17:01:45.844Z,1001.44
2022-07-25T17:02:46.403Z,1001.43
2022-07-25T17:03:45.810Z,1001.39
2022-07-25T17:04:45.837Z,1001.40
2022-07-25T17:05:45.868Z,1001.36
2022-07-25T17:06:46.046Z,1001.19
2022-07-25T17:07:45.791Z,1001.21
2022-07-25T17:08:45.949Z,1001.22
2022-07-25T17:09:45.789Z,1001.21
2022-07-25T17:10:45.904Z,1001.26
2022-07-25T17:11:47.243Z,1001.28
2022-07-25T17:12:45.718Z,1001.32
2022-07-25T17:13:46.194Z,1001.31
2022-07-25T17:14:46.392Z,1001.26
2022-07-25T17:15:45.776Z,1001.32
2022-07-25T17:16:45.661Z,1001.39
2022-07-25T17:17:45.651Z,1001.33
2022-07-25T17:18:45.648Z,1001.33
2022-07-25T17:19:46.639Z,1001.31
2022-07-25T17:20:48.035Z,1001.34
2022-07-25T17:21:45.675Z,1001.40
2022-07-25T17:22:49.286Z,1001.51
2022-07-25T17:23:45.727Z,1001.37
2022-07-25T17:24:46.287Z,1001.44
2022-07-25T17:25:50.267Z,1001.40
2022-07-25T17:26:47.812Z,1001.63
2022-07-25T17:27:45.567Z,1001.72
2022-07-25T17:28:45.539Z,1001.70
2022-07-25T17:29:45.528Z,1001.77
2022-07-25T17:30:46.924Z,1001.80
2022-07-25T17:31:45.590Z,1001.84
2022-07-25T17:32:45.565Z,1001.76
2022-07-25T17:33:45.487Z,1001.75
2022-07-25T17:34:45.832Z,1001.75
2022-07-25T17:35:45.465Z,1001.73
2022-07-25T17:36:45.469Z,1001.78
2022-07-25T17:37:45.446Z,1001.85
2022-07-25T17:38:45.431Z,1001.90
2022-07-25T17:39:45.435Z,1002.06
2022-07-25T17:40:45.881Z,1002.17
2022-07-25T17:41:45.485Z,1002.23
2022-07-25T17:42:45.720Z,1002.14
2022-07-25T17:43:45.389Z,1002.02
2022-07-25T17:44:45.487Z,1002.01
2022-07-25T17:45:45.496Z,1002.01
2022-07-25T17:46:45.444Z,1002.14
2022-07-25T17:47:48.913Z,1002.17
2022-07-25T17:48:47.754Z,1002.13
2022-07-25T17:49:45.338Z,1002.09
2022-07-25T17:50:45.318Z,1002.12
2022-07-25T17:51:46.315Z,1002.11
2022-07-25T17:52:45.294Z,1002.13
2022-07-25T17:53:45.289Z,1002.17
2022-07-25T17:54:48.018Z,1002.17
2022-07-25T17:55:45.269Z,1002.18
2022-07-25T17:56:45.256Z,1002.25
2022-07-25T17:57:45.244Z,1002.30
2022-07-25T17:58:45.262Z,1002.31
2022-07-25T17:59:45.223Z,1002.35
2022-07-25T18:00:45.200Z,1002.38
2022-07-25T18:01:45.283Z,1002.43
2022-07-25T18:02:45.241Z,1002.46
2022-07-25T18:03:45.182Z,1002.41
2022-07-25T18:04:45.177Z,1002.37
2022-07-25T18:05:45.144Z,1002.33
2022-07-25T18:06:45.222Z,1002.34
2022-07-25T18:07:46.205Z,1002.37
2022-07-25T18:08:45.122Z,1002.32
2022-07-25T18:09:45.179Z,1002.30
2022-07-25T18:10:45.092Z,1002.25
2022-07-25T18:11:45.793Z,1002.30
2022-07-25T18:12:45.085Z,1002.39
2022-07-25T18:13:45.338Z,1002.37
2022-07-25T18:14:45.069Z,1002.37
2022-07-25T18:15:45.183Z,1002.32
2022-07-25T18:16:54.019Z,1002.34
2022-07-25T18:18:55.789Z,1002.34
2022-07-25T18:19:55.375Z,1002.34
2022-07-25T18:20:55.401Z,1002.37
2022-07-25T18:21:55.436Z,1002.41
2022-07-25T18:22:55.349Z,1002.40
2022-07-25T18:23:55.307Z,1002.32
2022-07-25T18:24:55.335Z,1002.35
2022-07-25T18:25:55.293Z,1002.29
2022-07-25T18:26:55.635Z,1002.27
2022-07-25T18:27:55.286Z,1002.31
2022-07-25T18:28:55.770Z,1002.29
2022-07-25T18:29:55.259Z,1002.35
2022-07-25T18:30:55.310Z,1002.31
2022-07-25T18:31:55.237Z,1002.32
2022-07-25T18:32:55.386Z,1002.29
2022-07-25T18:33:55.225Z,1002.24
2022-07-25T18:35:00.153Z,1002.18
2022-07-25T18:35:58.228Z,1002.18
2022-07-25T18:36:55.186Z,1002.16
2022-07-25T18:37:55.171Z,1002.14
2022-07-25T18:38:55.169Z,1002.14
2022-07-25T18:39:55.278Z,1002.11
2022-07-25T18:41:12.563Z,1002.17
2022-07-25T18:41:56.196Z,1002.10
2022-07-25T18:42:55.182Z,1002.04
2022-07-25T18:43:59.433Z,1002.16
2022-07-25T18:44:56.152Z,1002.22
2022-07-25T18:45:55.234Z,1002.18
2022-07-25T18:46:55.947Z,1002.15
2022-07-25T18:47:57.024Z,1002.19
2022-07-25T18:48:55.138Z,1002.14
2022-07-25T18:49:55.987Z,1002.18
2022-07-25T18:50:55.247Z,1002.29
2022-07-25T18:51:58.790Z,1002.30
2022-07-25T18:52:55.057Z,1002.26
2022-07-25T18:53:55.024Z,1002.30
2022-07-25T18:54:56.850Z,1002.33
2022-07-25T18:55:59.659Z,1002.39
2022-07-25T18:56:56.944Z,1002.32
2022-07-25T18:57:56.447Z,1002.36
2022-07-25T18:58:57.843Z,1002.31
2022-07-25T18:59:58.303Z,1002.31
2022-07-25T19:00:55.933Z,1002.21
2022-07-25T19:01:56.509Z,1002.26
2022-07-25T19:02:56.374Z,1002.25
2022-07-25T19:03:58.881Z,1002.26
2022-07-25T19:04:58.973Z,1002.27
2022-07-25T19:06:01.234Z,1002.29
2022-07-25T19:06:59.582Z,1002.30
2022-07-25T19:07:57.722Z,1002.28
2022-07-25T19:08:54.850Z,1002.31
2022-07-25T19:09:56.970Z,1002.39
2022-07-25T19:10:57.444Z,1002.40
2022-07-25T19:12:00.027Z,1002.43
2022-07-25T19:13:56.619Z,1002.39
2022-07-25T19:14:57.973Z,1002.39
2022-07-25T19:15:54.920Z,1002.43
2022-07-25T19:16:56.715Z,1002.39
2022-07-25T19:17:56.856Z,1002.46
2022-07-25T19:18:57.162Z,1002.40
2022-07-25T19:19:56.714Z,1002.49
2022-07-25T19:20:57.955Z,1002.48
2022-07-25T19:21:55.429Z,1002.53
2022-07-25T19:22:54.836Z,1002.50
2022-07-25T19:23:56.960Z,1002.56
2022-07-25T19:24:54.675Z,1002.57
2022-07-25T19:25:57.206Z,1002.75
2022-07-25T19:26:54.697Z,1002.82
2022-07-25T19:27:54.661Z,1003.32
2022-07-25T19:28:54.635Z,1003.51
2022-07-25T19:29:54.617Z,1003.45
2022-07-25T19:30:54.615Z,1003.38
2022-07-25T19:31:54.610Z,1003.40
2022-07-25T19:32:54.593Z,1003.43
2022-07-25T19:33:54.579Z,1003.37
2022-07-25T19:34:54.579Z,1003.36
2022-07-25T19:35:54.556Z,1003.46
2022-07-25T19:36:54.545Z,1003.58
2022-07-25T19:37:54.535Z,1003.63
2022-07-25T19:38:54.539Z,1003.62
2022-07-25T19:39:55.454Z,1003.55
2022-07-25T19:40:54.500Z,1003.56
2022-07-25T19:41:54.489Z,1003.59
2022-07-25T19:42:54.476Z,1003.62
2022-07-25T19:43:54.513Z,1003.65
2022-07-25T19:44:54.464Z,1003.76
2022-07-25T19:45:54.580Z,1003.75
2022-07-25T19:46:54.450Z,1003.78
2022-07-25T19:47:54.428Z,1003.78
2022-07-25T19:48:54.440Z,1003.73
2022-07-25T19:49:54.969Z,1003.72
2022-07-25T19:51:09.298Z,1003.69
2022-07-25T19:51:55.396Z,1003.82
2022-07-25T19:52:54.551Z,1003.75
2022-07-25T19:53:54.361Z,1003.73
2022-07-25T19:54:54.350Z,1003.60
2022-07-25T19:55:54.371Z,1003.66
2022-07-25T19:56:54.348Z,1003.66
2022-07-25T19:57:54.316Z,1003.66
2022-07-25T19:58:54.320Z,1003.73
2022-07-25T19:59:54.328Z,1003.77
2022-07-25T20:00:54.290Z,1003.78
2022-07-25T20:01:54.358Z,1003.77
2022-07-25T20:02:54.381Z,1003.76
2022-07-25T20:03:54.269Z,1003.81
2022-07-25T20:04:58.591Z,1003.81
2022-07-25T20:06:18.014Z,1003.91
2022-07-25T20:06:55.998Z,1003.87
2022-07-25T20:08:00.091Z,1003.97
2022-07-25T20:08:54.219Z,1004.04
2022-07-25T20:09:54.198Z,1004.02
2022-07-25T20:10:54.186Z,1004.07
2022-07-25T20:11:54.189Z,1004.02
2022-07-25T20:12:56.936Z,1004.12
2022-07-25T20:13:55.162Z,1004.08
2022-07-25T20:14:54.163Z,1004.11
2022-07-25T20:15:54.150Z,1004.09
2022-07-25T20:16:54.159Z,1004.15
2022-07-25T20:17:54.114Z,1004.22
2022-07-25T20:18:54.108Z,1004.17
2022-07-25T20:19:54.099Z,1004.08
2022-07-25T20:20:54.087Z,1004.03
2022-07-25T20:21:54.090Z,1003.98
2022-07-25T20:22:54.069Z,1003.98
2022-07-25T20:23:54.058Z,1004.04
2022-07-25T20:24:54.040Z,1004.15
2022-07-25T20:25:54.051Z,1004.15
2022-07-25T20:26:54.018Z,1004.21
2022-07-25T20:27:54.018Z,1004.23
2022-07-25T20:28:53.989Z,1004.27
2022-07-25T20:29:53.979Z,1004.32
2022-07-25T20:30:54.094Z,1004.30
2022-07-25T20:31:53.977Z,1004.31
2022-07-25T20:32:53.965Z,1004.42
2022-07-25T20:33:53.950Z,1004.23
2022-07-25T20:34:53.930Z,1004.30
2022-07-25T20:35:53.922Z,1004.36
2022-07-25T20:36:53.904Z,1004.43
2022-07-25T20:37:53.903Z,1004.54
2022-07-25T20:38:53.897Z,1004.49
2022-07-25T20:39:53.876Z,1004.52
2022-07-25T20:40:53.867Z,1004.47
2022-07-25T20:41:53.846Z,1004.57
2022-07-25T20:42:53.852Z,1004.58
2022-07-25T20:43:53.843Z,1004.62
2022-07-25T20:44:53.831Z,1004.62
2022-07-25T20:45:53.901Z,1004.67
2022-07-25T20:46:53.793Z,1004.78
2022-07-25T20:47:53.785Z,1004.81
2022-07-25T20:48:53.798Z,1004.88
2022-07-25T20:49:53.796Z,1004.85
2022-07-25T20:50:53.774Z,1004.83
2022-07-25T20:51:54.708Z,1004.80
2022-07-25T20:52:53.737Z,1004.75
2022-07-25T20:53:53.821Z,1004.76
2022-07-25T20:54:53.703Z,1004.79
2022-07-25T20:55:53.708Z,1004.80
2022-07-25T20:56:53.699Z,1004.74
2022-07-25T20:57:53.694Z,1004.81
2022-07-25T20:58:53.671Z,1004.86
2022-07-25T20:59:53.656Z,1004.88
2022-07-25T21:00:53.693Z,1004.91
2022-07-25T21:01:53.704Z,1004.98
2022-07-25T21:02:53.687Z,1004.97
2022-07-25T21:03:53.613Z,1005.01
2022-07-25T21:04:53.606Z,1005.04
2022-07-25T21:05:53.593Z,1005.08
2022-07-25T21:06:53.580Z,1005.05
2022-07-25T21:07:53.596Z,1005.03
2022-07-25T21:08:53.560Z,1005.03
2022-07-25T21:09:53.556Z,1005.06
2022-07-25T21:10:53.534Z,1005.01
2022-07-25T21:11:53.523Z,1005.08
2022-07-25T21:12:53.537Z,1005.13
2022-07-25T21:13:53.517Z,1005.12
2022-07-25T21:14:53.494Z,1005.18
2022-07-25T21:15:53.488Z,1005.19
2022-07-25T21:16:53.574Z,1005.23
2022-07-25T21:17:53.466Z,1005.24
2022-07-25T21:18:53.466Z,1005.28
2022-07-25T21:19:53.471Z,1005.36
2022-07-25T21:20:53.436Z,1005.37
2022-07-25T21:21:53.433Z,1005.47
2022-07-25T21:22:53.410Z,1005.42
2022-07-25T21:23:53.403Z,1005.42
2022-07-25T21:24:53.390Z,1005.48
2022-07-25T21:25:53.397Z,1005.50
2022-07-25T21:26:53.388Z,1005.60
2022-07-25T21:27:53.358Z,1005.70
2022-07-25T21:28:53.354Z,1005.81
2022-07-25T21:29:53.345Z,1005.82
2022-07-25T21:30:53.331Z,1005.84
2022-07-25T21:31:54.356Z,1005.89
2022-07-25T21:32:53.327Z,1005.90
2022-07-25T21:33:53.298Z,1005.80
2022-07-25T21:34:53.285Z,1005.86
2022-07-25T21:35:53.940Z,1005.77
2022-07-25T21:36:53.288Z,1005.63
2022-07-25T21:37:53.281Z,1005.51
2022-07-25T21:38:53.252Z,1005.48
2022-07-25T21:39:53.237Z,1005.31
2022-07-25T21:40:53.228Z,1005.25
2022-07-25T21:41:54.933Z,1005.25
2022-07-25T21:42:53.211Z,1005.34
2022-07-25T21:43:53.222Z,1005.31
2022-07-25T21:44:53.189Z,1005.40
2022-07-25T21:45:53.256Z,1005.41
2022-07-25T21:46:53.165Z,1005.40
2022-07-25T21:47:53.166Z,1005.42
2022-07-25T21:48:53.186Z,1005.37
2022-07-25T21:49:53.155Z,1005.41
2022-07-25T21:50:53.117Z,1005.45
2022-07-25T21:51:53.111Z,1005.41
2022-07-25T21:52:53.094Z,1005.41
2022-07-25T21:53:53.103Z,1005.38
2022-07-25T21:54:53.091Z,1005.43
2022-07-25T21:55:53.091Z,1005.37
2022-07-25T21:56:53.056Z,1005.37
2022-07-25T21:57:53.059Z,1005.42
2022-07-25T21:58:53.030Z,1005.40
2022-07-25T21:59:53.050Z,1005.49
2022-07-25T22:00:53.091Z,1005.50
2022-07-25T22:01:53.021Z,1005.61
2022-07-25T22:02:52.988Z,1005.67
2022-07-25T22:03:53.034Z,1005.67
2022-07-25T22:04:52.966Z,1005.68
2022-07-25T22:05:52.967Z,1005.70
2022-07-25T22:06:52.946Z,1005.75
2022-07-25T22:07:52.944Z,1005.82
2022-07-25T22:08:52.944Z,1005.88
2022-07-25T22:09:52.913Z,1005.81
2022-07-25T22:10:52.926Z,1005.86
2022-07-25T22:11:52.904Z,1005.79
2022-07-25T22:12:52.880Z,1005.73
2022-07-25T22:13:52.879Z,1005.67
2022-07-25T22:14:52.863Z,1005.57
2022-07-25T22:15:52.858Z,1005.63
2022-07-25T22:16:52.922Z,1005.52
2022-07-25T22:17:52.831Z,1005.55
2022-07-25T22:18:52.835Z,1005.57
2022-07-25T22:19:52.821Z,1005.75
2022-07-25T22:20:52.804Z,1005.76
2022-07-25T22:21:52.811Z,1005.75
2022-07-25T22:22:52.773Z,1005.78
2022-07-25T22:23:52.760Z,1005.81
2022-07-25T22:24:52.761Z,1005.87
2022-07-25T22:25:52.765Z,1005.81
2022-07-25T22:26:52.741Z,1005.82
2022-07-25T22:27:52.744Z,1005.79
2022-07-25T22:28:52.720Z,1005.73
2022-07-25T22:29:52.713Z,1005.72
2022-07-25T22:30:52.695Z,1005.75
2022-07-25T22:31:52.785Z,1005.70
2022-07-25T22:32:52.683Z,1005.68
2022-07-25T22:34:00.307Z,1005.71
2022-07-25T22:36:03.029Z,1005.71
2022-07-25T22:37:02.981Z,1005.69
2022-07-25T22:38:03.017Z,1005.64
2022-07-25T22:39:02.974Z,1005.69
2022-07-25T22:40:03.024Z,1005.68
2022-07-25T22:41:02.928Z,1005.69
2022-07-25T22:42:02.911Z,1005.73
2022-07-25T22:43:02.910Z,1005.68
2022-07-25T22:44:02.883Z,1005.68
2022-07-25T22:45:02.865Z,1005.63
2022-07-25T22:46:02.953Z,1005.57
2022-07-25T22:47:02.851Z,1005.65
2022-07-25T22:48:02.830Z,1005.62
2022-07-25T22:49:02.864Z,1005.68
2022-07-25T22:50:02.820Z,1005.64
2022-07-25T22:51:02.818Z,1005.67
2022-07-25T22:52:02.790Z,1005.70
2022-07-25T22:53:02.778Z,1005.63
2022-07-25T22:54:02.776Z,1005.71
2022-07-25T22:55:02.792Z,1005.74
2022-07-25T22:56:02.750Z,1005.74
2022-07-25T22:57:02.758Z,1005.84
2022-07-25T22:58:02.734Z,1005.86
2022-07-25T22:59:02.717Z,1005.82
2022-07-25T23:00:02.718Z,1005.84
2022-07-25T23:01:02.704Z,1005.82
2022-07-25T23:02:02.689Z,1005.84
2022-07-25T23:03:02.745Z,1005.86
2022-07-25T23:04:02.791Z,1005.88
2022-07-25T23:05:02.658Z,1006.00
2022-07-25T23:06:02.662Z,1006.10
2022-07-25T23:07:02.641Z,1005.98
2022-07-25T23:08:02.642Z,1006.03
2022-07-25T23:09:02.620Z,1006.04
2022-07-25T23:10:02.604Z,1005.98
2022-07-25T23:11:02.593Z,1006.02
2022-07-25T23:12:02.592Z,1005.98
2022-07-25T23:13:02.573Z,1006.00
2022-07-25T23:14:02.558Z,1006.01
2022-07-25T23:15:02.755Z,1006.09
2022-07-25T23:16:03.381Z,1006.11
2022-07-25T23:17:02.662Z,1006.12
2022-07-25T23:18:02.519Z,1006.18
2022-07-25T23:19:02.520Z,1006.12
2022-07-25T23:20:02.543Z,1006.15
2022-07-25T23:21:11.285Z,1006.18
2022-07-25T23:23:12.948Z,1006.14
2022-07-25T23:24:12.905Z,1006.16
2022-07-25T23:25:13.053Z,1006.13
2022-07-25T23:26:13.072Z,1006.19
2022-07-25T23:27:12.932Z,1006.21
2022-07-25T23:28:12.753Z,1006.15
2022-07-25T23:29:12.743Z,1006.31
2022-07-25T23:30:12.745Z,1006.26
2022-07-25T23:31:12.758Z,1006.22
2022-07-25T23:32:12.714Z,1006.29
2022-07-25T23:33:12.703Z,1006.19
2022-07-25T23:34:12.679Z,1006.18
2022-07-25T23:35:12.678Z,1006.18
2022-07-25T23:36:12.668Z,1006.25
2022-07-25T23:37:12.662Z,1006.30
2022-07-25T23:38:12.652Z,1006.24
2022-07-25T23:39:14.881Z,1006.25
2022-07-25T23:40:12.626Z,1006.27
2022-07-25T23:41:12.616Z,1006.20
2022-07-25T23:42:12.601Z,1006.29
2022-07-25T23:43:12.622Z,1006.32
2022-07-25T23:44:12.592Z,1006.32
2022-07-25T23:45:12.578Z,1006.34
2022-07-25T23:46:12.565Z,1006.32
2022-07-25T23:47:12.604Z,1006.27
2022-07-25T23:48:12.536Z,1006.25
2022-07-25T23:49:13.126Z,1006.27
2022-07-25T23:50:12.534Z,1006.35
2022-07-25T23:51:12.511Z,1006.27
2022-07-25T23:52:12.497Z,1006.33
2022-07-25T23:53:12.482Z,1006.25
2022-07-25T23:54:12.487Z,1006.24
2022-07-25T23:55:12.462Z,1006.20
2022-07-25T23:56:15.072Z,1006.20
2022-07-25T23:57:12.447Z,1006.23
2022-07-25T23:58:12.449Z,1006.21
2022-07-25T23:59:12.449Z,1006.24
